sensor_id;sensor_type;location;lat;lon;timestamp;pressure;altitude;pressure_sealevel;temperature;humidity
70133;BME280;57495;49.922;7.966;2023-03-03T00:00:05;100293.97;;;3.93;55.33
70133;BME280;57495;49.922;7.966;2023-03-03T00:02:07;100299.25;;;3.79;55.25
70133;BME280;57495;49.922;7.966;2023-03-03T00:04:10;100298.47;;;3.62;55.36
70133;BME280;57495;49.922;7.966;2023-03-03T00:06:13;100303.06;;;3.59;56.06
70133;BME280;57495;49.922;7.966;2023-03-03T00:08:15;100306.69;;;3.58;56.36
70133;BME280;57495;49.922;7.966;2023-03-03T00:10:16;100301.44;;;3.42;56.41
70133;BME280;57495;49.922;7.966;2023-03-03T00:12:22;100305.47;;;3.63;55.73
70133;BME280;57495;49.922;7.966;2023-03-03T00:14:28;100302.06;;;3.61;56.01
70133;BME280;57495;49.922;7.966;2023-03-03T00:16:31;100298.84;;;3.56;56.45
70133;BME280;57495;49.922;7.966;2023-03-03T00:18:36;100306.56;;;3.45;56.25
70133;BME280;57495;49.922;7.966;2023-03-03T00:20:47;100306.47;;;3.46;56.33
70133;BME280;57495;49.922;7.966;2023-03-03T00:22:48;100311.47;;;3.51;56.18
70133;BME280;57495;49.922;7.966;2023-03-03T00:24:50;100302.41;;;3.55;56.15
70133;BME280;57495;49.922;7.966;2023-03-03T00:26:53;100307.97;;;3.51;56.71
70133;BME280;57495;49.922;7.966;2023-03-03T00:28:55;100312.09;;;3.10;57.94
70133;BME280;57495;49.922;7.966;2023-03-03T00:30:58;100316.47;;;3.25;57.51
70133;BME280;57495;49.922;7.966;2023-03-03T00:33:00;100319.50;;;3.19;57.53
70133;BME280;57495;49.922;7.966;2023-03-03T00:35:18;100314.50;;;2.99;58.75
70133;BME280;57495;49.922;7.966;2023-03-03T00:37:28;100323.03;;;3.04;58.36
70133;BME280;57495;49.922;7.966;2023-03-03T00:39:30;100327.09;;;3.09;58.61
70133;BME280;57495;49.922;7.966;2023-03-03T00:41:35;100325.91;;;3.15;58.11
70133;BME280;57495;49.922;7.966;2023-03-03T00:43:37;100323.19;;;3.01;58.67
70133;BME280;57495;49.922;7.966;2023-03-03T00:45:42;100324.47;;;2.94;59.30
70133;BME280;57495;49.922;7.966;2023-03-03T00:47:45;100333.38;;;3.07;58.67
70133;BME280;57495;49.922;7.966;2023-03-03T00:49:47;100328.47;;;3.01;58.66
70133;BME280;57495;49.922;7.966;2023-03-03T00:51:48;100324.53;;;3.08;58.84
70133;BME280;57495;49.922;7.966;2023-03-03T00:53:51;100339.03;;;3.17;58.63
70133;BME280;57495;49.922;7.966;2023-03-03T00:55:52;100341.31;;;3.07;58.85
70133;BME280;57495;49.922;7.966;2023-03-03T00:57:54;100340.66;;;2.87;59.02
70133;BME280;57495;49.922;7.966;2023-03-03T00:59:54;100342.53;;;2.85;59.61
70133;BME280;57495;49.922;7.966;2023-03-03T01:01:56;100340.72;;;2.70;60.39
70133;BME280;57495;49.922;7.966;2023-03-03T01:03:57;100343.88;;;2.61;60.15
70133;BME280;57495;49.922;7.966;2023-03-03T01:05:59;100339.97;;;2.52;60.53
70133;BME280;57495;49.922;7.966;2023-03-03T01:08:00;100341.59;;;2.55;60.67
70133;BME280;57495;49.922;7.966;2023-03-03T01:10:04;100341.41;;;2.58;60.86
70133;BME280;57495;49.922;7.966;2023-03-03T01:12:05;100335.03;;;2.62;60.69
70133;BME280;57495;49.922;7.966;2023-03-03T01:14:07;100331.88;;;2.71;60.52
70133;BME280;57495;49.922;7.966;2023-03-03T01:16:08;100328.13;;;2.75;60.28
70133;BME280;57495;49.922;7.966;2023-03-03T01:18:11;100327.03;;;2.79;60.26
70133;BME280;57495;49.922;7.966;2023-03-03T01:20:13;100330.53;;;2.80;60.06
70133;BME280;57495;49.922;7.966;2023-03-03T01:22:15;100321.41;;;2.85;60.03
70133;BME280;57495;49.922;7.966;2023-03-03T01:24:16;100321.41;;;2.85;60.39
70133;BME280;57495;49.922;7.966;2023-03-03T01:26:19;100323.72;;;2.60;60.61
70133;BME280;57495;49.922;7.966;2023-03-03T01:28:21;100320.44;;;2.39;61.55
70133;BME280;57495;49.922;7.966;2023-03-03T01:30:24;100324.56;;;2.60;61.32
70133;BME280;57495;49.922;7.966;2023-03-03T01:32:26;100326.78;;;2.52;61.47
70133;BME280;57495;49.922;7.966;2023-03-03T01:34:28;100328.53;;;2.51;61.18
70133;BME280;57495;49.922;7.966;2023-03-03T01:36:29;100325.91;;;2.51;61.06
70133;BME280;57495;49.922;7.966;2023-03-03T01:38:31;100331.94;;;2.38;61.28
70133;BME280;57495;49.922;7.966;2023-03-03T01:40:35;100325.91;;;2.36;61.54
70133;BME280;57495;49.922;7.966;2023-03-03T01:42:38;100331.69;;;2.42;62.13
70133;BME280;57495;49.922;7.966;2023-03-03T01:44:39;100336.13;;;2.42;61.94
70133;BME280;57495;49.922;7.966;2023-03-03T01:46:47;100331.53;;;2.45;62.51
70133;BME280;57495;49.922;7.966;2023-03-03T01:48:52;100322.84;;;2.43;62.27
70133;BME280;57495;49.922;7.966;2023-03-03T01:50:59;100329.66;;;2.47;62.33
70133;BME280;57495;49.922;7.966;2023-03-03T01:53:04;100320.63;;;2.51;62.29
70133;BME280;57495;49.922;7.966;2023-03-03T01:55:11;100323.25;;;2.51;62.51
70133;BME280;57495;49.922;7.966;2023-03-03T01:57:15;100321.00;;;2.61;62.23
70133;BME280;57495;49.922;7.966;2023-03-03T01:59:23;100327.00;;;2.47;62.35
70133;BME280;57495;49.922;7.966;2023-03-03T02:01:27;100322.00;;;2.43;62.28
70133;BME280;57495;49.922;7.966;2023-03-03T02:03:29;100322.00;;;2.59;61.88
70133;BME280;57495;49.922;7.966;2023-03-03T02:05:31;100324.63;;;2.59;62.01
70133;BME280;57495;49.922;7.966;2023-03-03T02:07:34;100323.63;;;2.61;61.65
70133;BME280;57495;49.922;7.966;2023-03-03T02:09:44;100317.97;;;2.36;62.17
70133;BME280;57495;49.922;7.966;2023-03-03T02:11:50;100319.25;;;2.28;62.62
70133;BME280;57495;49.922;7.966;2023-03-03T02:13:52;100318.28;;;2.29;62.52
70133;BME280;57495;49.922;7.966;2023-03-03T02:15:55;100317.38;;;2.30;62.79
70133;BME280;57495;49.922;7.966;2023-03-03T02:18:01;100312.25;;;2.27;63.07
70133;BME280;57495;49.922;7.966;2023-03-03T02:20:06;100314.19;;;2.24;62.91
70133;BME280;57495;49.922;7.966;2023-03-03T02:22:13;100316.53;;;2.30;62.79
70133;BME280;57495;49.922;7.966;2023-03-03T02:24:23;100313.78;;;2.16;62.76
70133;BME280;57495;49.922;7.966;2023-03-03T02:26:29;100316.41;;;2.16;62.62
70133;BME280;57495;49.922;7.966;2023-03-03T02:28:33;100313.56;;;2.03;63.00
70133;BME280;57495;49.922;7.966;2023-03-03T02:30:37;100319.69;;;2.03;63.08
70133;BME280;57495;49.922;7.966;2023-03-03T02:32:38;100320.22;;;2.10;63.21
70133;BME280;57495;49.922;7.966;2023-03-03T02:34:46;100328.06;;;1.94;63.35
70133;BME280;57495;49.922;7.966;2023-03-03T02:36:47;100320.50;;;1.88;63.63
70133;BME280;57495;49.922;7.966;2023-03-03T02:38:54;100321.53;;;1.85;63.96
70133;BME280;57495;49.922;7.966;2023-03-03T02:41:02;100322.38;;;1.68;64.31
70133;BME280;57495;49.922;7.966;2023-03-03T02:43:10;100321.75;;;1.81;64.29
70133;BME280;57495;49.922;7.966;2023-03-03T02:45:12;100318.13;;;1.83;64.84
70133;BME280;57495;49.922;7.966;2023-03-03T02:47:13;100314.19;;;1.90;64.06
70133;BME280;57495;49.922;7.966;2023-03-03T02:49:16;100318.25;;;1.80;64.34
70133;BME280;57495;49.922;7.966;2023-03-03T02:51:18;100326.09;;;1.64;65.20
70133;BME280;57495;49.922;7.966;2023-03-03T02:53:20;100323.63;;;1.61;65.21
70133;BME280;57495;49.922;7.966;2023-03-03T02:55:21;100323.09;;;1.54;65.63
70133;BME280;57495;49.922;7.966;2023-03-03T02:57:22;100316.03;;;1.55;65.87
70133;BME280;57495;49.922;7.966;2023-03-03T02:59:25;100317.03;;;1.70;65.67
70133;BME280;57495;49.922;7.966;2023-03-03T03:01:27;100316.88;;;1.73;65.04
70133;BME280;57495;49.922;7.966;2023-03-03T03:03:31;100318.19;;;1.64;64.97
70133;BME280;57495;49.922;7.966;2023-03-03T03:05:32;100316.50;;;1.46;64.88
70133;BME280;57495;49.922;7.966;2023-03-03T03:07:34;100319.13;;;1.46;65.36
70133;BME280;57495;49.922;7.966;2023-03-03T03:09:35;100324.94;;;1.52;65.33
70133;BME280;57495;49.922;7.966;2023-03-03T03:11:37;100336.66;;;1.47;66.20
70133;BME280;57495;49.922;7.966;2023-03-03T03:13:39;100332.75;;;1.37;66.43
70133;BME280;57495;49.922;7.966;2023-03-03T03:15:44;100333.78;;;1.34;66.51
70133;BME280;57495;49.922;7.966;2023-03-03T03:17:45;100330.69;;;1.43;66.48
70133;BME280;57495;49.922;7.966;2023-03-03T03:19:47;100330.44;;;1.48;66.71
70133;BME280;57495;49.922;7.966;2023-03-03T03:21:48;100331.38;;;1.47;66.96
70133;BME280;57495;49.922;7.966;2023-03-03T03:23:50;100333.38;;;1.42;66.80
70133;BME280;57495;49.922;7.966;2023-03-03T03:25:51;100331.81;;;1.20;66.81
70133;BME280;57495;49.922;7.966;2023-03-03T03:27:52;100332.63;;;1.22;66.68
70133;BME280;57495;49.922;7.966;2023-03-03T03:29:54;100336.63;;;1.29;66.77
70133;BME280;57495;49.922;7.966;2023-03-03T03:31:57;100339.44;;;1.26;66.27
70133;BME280;57495;49.922;7.966;2023-03-03T03:33:58;100332.44;;;1.25;66.25
70133;BME280;57495;49.922;7.966;2023-03-03T03:36:01;100340.19;;;1.28;66.08
70133;BME280;57495;49.922;7.966;2023-03-03T03:38:02;100343.53;;;1.32;66.43
70133;BME280;57495;49.922;7.966;2023-03-03T03:40:05;100344.84;;;1.23;66.63
70133;BME280;57495;49.922;7.966;2023-03-03T03:42:06;100341.28;;;1.24;66.64
70133;BME280;57495;49.922;7.966;2023-03-03T03:44:08;100340.72;;;1.18;66.68
70133;BME280;57495;49.922;7.966;2023-03-03T03:46:09;100338.03;;;1.19;66.18
70133;BME280;57495;49.922;7.966;2023-03-03T03:48:12;100342.47;;;1.00;68.24
70133;BME280;57495;49.922;7.966;2023-03-03T03:50:15;100348.88;;;1.13;68.97
70133;BME280;57495;49.922;7.966;2023-03-03T03:52:16;100346.00;;;1.18;68.15
70133;BME280;57495;49.922;7.966;2023-03-03T03:54:18;100351.31;;;1.16;68.18
70133;BME280;57495;49.922;7.966;2023-03-03T03:56:19;100346.00;;;1.18;68.26
70133;BME280;57495;49.922;7.966;2023-03-03T03:58:20;100350.41;;;1.17;68.97
70133;BME280;57495;49.922;7.966;2023-03-03T04:00:22;100353.69;;;1.22;68.52
70133;BME280;57495;49.922;7.966;2023-03-03T04:02:24;100355.38;;;1.23;68.33
70133;BME280;57495;49.922;7.966;2023-03-03T04:04:27;100345.06;;;1.19;68.49
70133;BME280;57495;49.922;7.966;2023-03-03T04:06:28;100352.16;;;1.16;69.11
70133;BME280;57495;49.922;7.966;2023-03-03T04:08:29;100342.59;;;1.15;68.85
70133;BME280;57495;49.922;7.966;2023-03-03T04:10:31;100348.38;;;1.05;68.86
70133;BME280;57495;49.922;7.966;2023-03-03T04:12:32;100353.63;;;1.05;69.14
70133;BME280;57495;49.922;7.966;2023-03-03T04:14:37;100354.34;;;1.08;69.69
70133;BME280;57495;49.922;7.966;2023-03-03T04:16:39;100357.03;;;1.07;69.85
70133;BME280;57495;49.922;7.966;2023-03-03T04:18:40;100354.72;;;1.01;70.85
70133;BME280;57495;49.922;7.966;2023-03-03T04:20:44;100355.03;;;1.12;70.48
70133;BME280;57495;49.922;7.966;2023-03-03T04:22:46;100357.97;;;1.06;70.49
70133;BME280;57495;49.922;7.966;2023-03-03T04:24:47;100357.97;;;1.06;70.34
70133;BME280;57495;49.922;7.966;2023-03-03T04:26:48;100355.69;;;0.98;70.75
70133;BME280;57495;49.922;7.966;2023-03-03T04:28:50;100357.88;;;0.71;72.04
70133;BME280;57495;49.922;7.966;2023-03-03T04:30:51;100358.00;;;0.68;72.42
70133;BME280;57495;49.922;7.966;2023-03-03T04:32:53;100359.50;;;0.73;71.96
70133;BME280;57495;49.922;7.966;2023-03-03T04:34:54;100353.88;;;0.81;71.51
70133;BME280;57495;49.922;7.966;2023-03-03T04:36:57;100345.97;;;0.81;71.98
70133;BME280;57495;49.922;7.966;2023-03-03T04:38:59;100360.06;;;0.80;71.63
70133;BME280;57495;49.922;7.966;2023-03-03T04:41:00;100360.28;;;0.75;72.15
70133;BME280;57495;49.922;7.966;2023-03-03T04:43:02;100357.38;;;0.82;72.31
70133;BME280;57495;49.922;7.966;2023-03-03T04:45:04;100364.41;;;0.81;72.80
70133;BME280;57495;49.922;7.966;2023-03-03T04:47:06;100364.41;;;0.81;73.05
70133;BME280;57495;49.922;7.966;2023-03-03T04:49:07;100371.06;;;0.88;73.10
70133;BME280;57495;49.922;7.966;2023-03-03T04:51:09;100363.34;;;0.66;73.98
70133;BME280;57495;49.922;7.966;2023-03-03T04:53:12;100372.22;;;0.64;74.58
70133;BME280;57495;49.922;7.966;2023-03-03T04:55:13;100365.13;;;0.66;74.96
70133;BME280;57495;49.922;7.966;2023-03-03T04:57:15;100368.41;;;0.71;74.36
70133;BME280;57495;49.922;7.966;2023-03-03T04:59:17;100363.91;;;0.73;74.96
70133;BME280;57495;49.922;7.966;2023-03-03T05:01:18;100356.16;;;0.70;74.63
70133;BME280;57495;49.922;7.966;2023-03-03T05:03:20;100361.69;;;0.83;73.69
70133;BME280;57495;49.922;7.966;2023-03-03T05:05:22;100365.41;;;0.79;73.86
70133;BME280;57495;49.922;7.966;2023-03-03T05:07:24;100379.34;;;0.81;73.81
70133;BME280;57495;49.922;7.966;2023-03-03T05:09:27;100372.53;;;0.76;74.98
70133;BME280;57495;49.922;7.966;2023-03-03T05:11:28;100371.88;;;0.71;73.67
70133;BME280;57495;49.922;7.966;2023-03-03T05:13:31;100369.81;;;0.78;74.12
70133;BME280;57495;49.922;7.966;2023-03-03T05:15:33;100373.38;;;0.77;74.64
70133;BME280;57495;49.922;7.966;2023-03-03T05:17:34;100381.13;;;0.80;74.53
70133;BME280;57495;49.922;7.966;2023-03-03T05:19:35;100375.34;;;0.72;74.36
70133;BME280;57495;49.922;7.966;2023-03-03T05:21:37;100379.00;;;0.69;74.65
70133;BME280;57495;49.922;7.966;2023-03-03T05:23:41;100376.44;;;0.68;74.08
70133;BME280;57495;49.922;7.966;2023-03-03T05:25:45;100379.34;;;0.62;74.57
70133;BME280;57495;49.922;7.966;2023-03-03T05:27:47;100378.50;;;0.61;73.59
70133;BME280;57495;49.922;7.966;2023-03-03T05:29:48;100377.38;;;0.67;73.80
70133;BME280;57495;49.922;7.966;2023-03-03T05:31:50;100380.97;;;0.64;73.87
70133;BME280;57495;49.922;7.966;2023-03-03T05:33:52;100371.59;;;0.58;73.15
70133;BME280;57495;49.922;7.966;2023-03-03T05:35:54;100367.81;;;0.64;73.95
70133;BME280;57495;49.922;7.966;2023-03-03T05:37:56;100368.41;;;0.71;73.79
70133;BME280;57495;49.922;7.966;2023-03-03T05:39:58;100374.81;;;0.65;75.40
70133;BME280;57495;49.922;7.966;2023-03-03T05:42:01;100364.03;;;0.70;74.25
70133;BME280;57495;49.922;7.966;2023-03-03T05:44:03;100374.09;;;0.62;74.09
70133;BME280;57495;49.922;7.966;2023-03-03T05:46:04;100383.41;;;0.29;76.41
70133;BME280;57495;49.922;7.966;2023-03-03T05:48:06;100380.00;;;0.27;76.29
70133;BME280;57495;49.922;7.966;2023-03-03T05:50:09;100386.78;;;0.33;76.73
70133;BME280;57495;49.922;7.966;2023-03-03T05:52:11;100388.00;;;0.45;77.06
70133;BME280;57495;49.922;7.966;2023-03-03T05:54:13;100388.16;;;0.42;78.33
70133;BME280;57495;49.922;7.966;2023-03-03T05:56:15;100386.22;;;0.45;78.05
70133;BME280;57495;49.922;7.966;2023-03-03T05:58:17;100389.56;;;0.49;78.59
70133;BME280;57495;49.922;7.966;2023-03-03T06:00:20;100385.28;;;0.46;79.64
70133;BME280;57495;49.922;7.966;2023-03-03T06:02:21;100388.78;;;0.47;79.48
70133;BME280;57495;49.922;7.966;2023-03-03T06:04:23;100392.69;;;0.38;80.23
70133;BME280;57495;49.922;7.966;2023-03-03T06:06:24;100399.38;;;0.45;80.62
70133;BME280;57495;49.922;7.966;2023-03-03T06:08:27;100409.63;;;0.51;80.25
70133;BME280;57495;49.922;7.966;2023-03-03T06:10:29;100398.84;;;0.57;80.15
70133;BME280;57495;49.922;7.966;2023-03-03T06:12:31;100396.81;;;0.63;79.25
70133;BME280;57495;49.922;7.966;2023-03-03T06:14:34;100403.59;;;0.68;79.43
70133;BME280;57495;49.922;7.966;2023-03-03T06:16:35;100405.50;;;0.65;79.50
70133;BME280;57495;49.922;7.966;2023-03-03T06:18:37;100401.84;;;0.69;79.65
70133;BME280;57495;49.922;7.966;2023-03-03T06:20:38;100408.66;;;0.73;79.76
70133;BME280;57495;49.922;7.966;2023-03-03T06:22:39;100403.53;;;0.70;79.68
70133;BME280;57495;49.922;7.966;2023-03-03T06:24:41;100415.91;;;0.68;79.62
70133;BME280;57495;49.922;7.966;2023-03-03T06:26:42;100414.03;;;0.70;79.38
70133;BME280;57495;49.922;7.966;2023-03-03T06:28:44;100410.50;;;0.71;79.99
70133;BME280;57495;49.922;7.966;2023-03-03T06:30:47;100417.47;;;0.72;80.36
70133;BME280;57495;49.922;7.966;2023-03-03T06:32:48;100417.47;;;0.72;80.51
70133;BME280;57495;49.922;7.966;2023-03-03T06:34:50;100418.44;;;0.50;81.46
70133;BME280;57495;49.922;7.966;2023-03-03T06:36:51;100418.59;;;0.66;80.46
70133;BME280;57495;49.922;7.966;2023-03-03T06:38:52;100422.88;;;0.69;80.69
70133;BME280;57495;49.922;7.966;2023-03-03T06:40:54;100428.56;;;0.79;80.64
70133;BME280;57495;49.922;7.966;2023-03-03T06:42:55;100418.88;;;0.79;80.46
70133;BME280;57495;49.922;7.966;2023-03-03T06:44:57;100423.09;;;0.83;80.50
70133;BME280;57495;49.922;7.966;2023-03-03T06:47:00;100438.38;;;0.75;80.77
70133;BME280;57495;49.922;7.966;2023-03-03T06:49:01;100433.84;;;0.79;80.46
70133;BME280;57495;49.922;7.966;2023-03-03T06:51:16;100426.84;;;0.77;80.04
70133;BME280;57495;49.922;7.966;2023-03-03T06:53:20;100438.88;;;0.83;80.11
70133;BME280;57495;49.922;7.966;2023-03-03T06:55:22;100445.38;;;0.76;80.60
70133;BME280;57495;49.922;7.966;2023-03-03T06:57:25;100454.25;;;0.73;80.90
70133;BME280;57495;49.922;7.966;2023-03-03T06:59:27;100454.19;;;0.75;81.54
70133;BME280;57495;49.922;7.966;2023-03-03T07:01:33;100459.75;;;0.88;81.05
70133;BME280;57495;49.922;7.966;2023-03-03T07:03:36;100465.72;;;0.91;80.19
70133;BME280;57495;49.922;7.966;2023-03-03T07:05:38;100458.59;;;0.93;79.83
70133;BME280;57495;49.922;7.966;2023-03-03T07:07:39;100458.03;;;1.06;80.17
70133;BME280;57495;49.922;7.966;2023-03-03T07:09:43;100457.44;;;1.18;80.30
70133;BME280;57495;49.922;7.966;2023-03-03T07:11:44;100463.94;;;1.30;80.44
70133;BME280;57495;49.922;7.966;2023-03-03T07:13:47;100465.44;;;1.35;81.25
70133;BME280;57495;49.922;7.966;2023-03-03T07:15:51;100462.41;;;1.43;80.84
70133;BME280;57495;49.922;7.966;2023-03-03T07:17:55;100470.88;;;1.50;80.67
70133;BME280;57495;49.922;7.966;2023-03-03T07:20:00;100473.06;;;1.59;81.19
70133;BME280;57495;49.922;7.966;2023-03-03T07:22:10;100472.63;;;1.68;81.23
70133;BME280;57495;49.922;7.966;2023-03-03T07:24:24;100488.22;;;1.90;81.04
70133;BME280;57495;49.922;7.966;2023-03-03T07:26:29;100489.63;;;1.98;80.62
70133;BME280;57495;49.922;7.966;2023-03-03T07:28:32;100484.78;;;2.07;80.14
70133;BME280;57495;49.922;7.966;2023-03-03T07:30:34;100485.69;;;2.24;80.09
70133;BME280;57495;49.922;7.966;2023-03-03T07:32:37;100488.66;;;2.35;79.98
70133;BME280;57495;49.922;7.966;2023-03-03T07:34:43;100493.13;;;2.50;79.45
70133;BME280;57495;49.922;7.966;2023-03-03T07:36:48;100498.19;;;2.38;79.39
70133;BME280;57495;49.922;7.966;2023-03-03T07:38:52;100504.31;;;2.56;77.74
70133;BME280;57495;49.922;7.966;2023-03-03T07:40:55;100507.88;;;2.55;77.62
70133;BME280;57495;49.922;7.966;2023-03-03T07:42:58;100515.94;;;2.69;76.92
70133;BME280;57495;49.922;7.966;2023-03-03T07:45:00;100514.84;;;2.73;77.05
70133;BME280;57495;49.922;7.966;2023-03-03T07:47:16;100514.03;;;2.88;76.61
70133;BME280;57495;49.922;7.966;2023-03-03T07:49:23;100521.03;;;2.89;76.58
70133;BME280;57495;49.922;7.966;2023-03-03T07:51:27;100514.91;;;3.05;76.29
70133;BME280;57495;49.922;7.966;2023-03-03T07:53:33;100527.41;;;3.19;76.44
70133;BME280;57495;49.922;7.966;2023-03-03T07:55:38;100523.66;;;3.39;75.89
70133;BME280;57495;49.922;7.966;2023-03-03T07:57:40;100526.38;;;3.53;75.29
70133;BME280;57495;49.922;7.966;2023-03-03T07:59:45;100533.88;;;3.61;74.52
70133;BME280;57495;49.922;7.966;2023-03-03T08:01:50;100530.16;;;3.65;73.96
70133;BME280;57495;49.922;7.966;2023-03-03T08:03:52;100537.81;;;3.70;73.02
70133;BME280;57495;49.922;7.966;2023-03-03T08:05:53;100541.50;;;3.67;71.79
70133;BME280;57495;49.922;7.966;2023-03-03T08:08:10;100542.91;;;3.88;71.79
70133;BME280;57495;49.922;7.966;2023-03-03T08:10:30;100542.78;;;3.76;71.25
70133;BME280;57495;49.922;7.966;2023-03-03T08:12:37;100548.31;;;3.87;71.54
70133;BME280;57495;49.922;7.966;2023-03-03T08:14:41;100546.91;;;4.12;71.56
70133;BME280;57495;49.922;7.966;2023-03-03T08:16:42;100541.47;;;3.99;73.38
70133;BME280;57495;49.922;7.966;2023-03-03T08:18:45;100541.00;;;4.22;72.81
70133;BME280;57495;49.922;7.966;2023-03-03T08:20:49;100538.25;;;4.24;72.28
70133;BME280;57495;49.922;7.966;2023-03-03T08:22:50;100538.88;;;4.43;71.32
70133;BME280;57495;49.922;7.966;2023-03-03T08:24:52;100550.44;;;4.57;72.46
70133;BME280;57495;49.922;7.966;2023-03-03T08:26:54;100545.75;;;4.76;72.58
70133;BME280;57495;49.922;7.966;2023-03-03T08:28:56;100546.31;;;4.96;71.64
70133;BME280;57495;49.922;7.966;2023-03-03T08:30:57;100534.41;;;5.17;71.77
70133;BME280;57495;49.922;7.966;2023-03-03T08:32:59;100537.47;;;5.26;70.76
70133;BME280;57495;49.922;7.966;2023-03-03T08:35:01;100546.16;;;5.28;71.02
70133;BME280;57495;49.922;7.966;2023-03-03T08:37:02;100547.94;;;5.41;70.24
70133;BME280;57495;49.922;7.966;2023-03-03T08:39:04;100557.13;;;5.50;70.42
70133;BME280;57495;49.922;7.966;2023-03-03T08:41:06;100549.91;;;5.67;70.86
70133;BME280;57495;49.922;7.966;2023-03-03T08:43:09;100553.13;;;5.57;70.44
70133;BME280;57495;49.922;7.966;2023-03-03T08:45:13;100541.13;;;5.79;70.43
70133;BME280;57495;49.922;7.966;2023-03-03T08:47:15;100540.16;;;5.94;68.81
70133;BME280;57495;49.922;7.966;2023-03-03T08:49:17;100542.00;;;6.07;69.54
70133;BME280;57495;49.922;7.966;2023-03-03T08:51:18;100538.28;;;6.36;68.99
70133;BME280;57495;49.922;7.966;2023-03-03T08:53:21;100543.81;;;6.33;67.72
70133;BME280;57495;49.922;7.966;2023-03-03T08:55:22;100548.63;;;6.54;68.04
70133;BME280;57495;49.922;7.966;2023-03-03T08:57:24;100546.06;;;6.52;68.41
70133;BME280;57495;49.922;7.966;2023-03-03T08:59:27;100559.91;;;6.57;66.97
70133;BME280;57495;49.922;7.966;2023-03-03T09:01:28;100555.13;;;6.50;69.51
70133;BME280;57495;49.922;7.966;2023-03-03T09:03:30;100558.84;;;6.60;66.75
70133;BME280;57495;49.922;7.966;2023-03-03T09:05:32;100550.56;;;6.65;66.61
70133;BME280;57495;49.922;7.966;2023-03-03T09:07:34;100547.06;;;6.90;67.44
70133;BME280;57495;49.922;7.966;2023-03-03T09:09:35;100557.78;;;7.14;65.87
70133;BME280;57495;49.922;7.966;2023-03-03T09:11:37;100548.66;;;7.18;65.67
70133;BME280;57495;49.922;7.966;2023-03-03T09:13:39;100553.09;;;7.18;64.85
70133;BME280;57495;49.922;7.966;2023-03-03T09:15:42;100550.22;;;7.33;65.21
70133;BME280;57495;49.922;7.966;2023-03-03T09:17:44;100554.81;;;7.31;64.68
70133;BME280;57495;49.922;7.966;2023-03-03T09:19:45;100552.69;;;7.24;64.55
70133;BME280;57495;49.922;7.966;2023-03-03T09:21:46;100553.75;;;7.08;64.67
70133;BME280;57495;49.922;7.966;2023-03-03T09:23:52;100553.75;;;7.21;64.61
70133;BME280;57495;49.922;7.966;2023-03-03T09:25:55;100565.84;;;7.51;63.96
70133;BME280;57495;49.922;7.966;2023-03-03T09:27:57;100559.47;;;7.53;64.12
70133;BME280;57495;49.922;7.966;2023-03-03T09:30:00;100556.97;;;7.63;63.29
70133;BME280;57495;49.922;7.966;2023-03-03T09:32:20;100562.25;;;8.13;62.67
70133;BME280;57495;49.922;7.966;2023-03-03T09:34:26;100563.25;;;8.23;61.85
70133;BME280;57495;49.922;7.966;2023-03-03T09:36:35;100571.59;;;8.19;61.06
70133;BME280;57495;49.922;7.966;2023-03-03T09:38:40;100568.81;;;8.20;61.18
70133;BME280;57495;49.922;7.966;2023-03-03T09:40:54;100569.09;;;8.28;60.52
70133;BME280;57495;49.922;7.966;2023-03-03T09:43:01;100564.56;;;8.42;61.47
70133;BME280;57495;49.922;7.966;2023-03-03T09:45:28;100566.16;;;8.80;59.75
70133;BME280;57495;49.922;7.966;2023-03-03T09:47:45;100566.63;;;8.74;59.60
70133;BME280;57495;49.922;7.966;2023-03-03T09:49:58;100572.22;;;8.93;60.13
70133;BME280;57495;49.922;7.966;2023-03-03T09:52:19;100577.78;;;8.90;59.53
70133;BME280;57495;49.922;7.966;2023-03-03T09:54:44;100579.13;;;8.96;58.91
70133;BME280;57495;49.922;7.966;2023-03-03T09:56:52;100588.00;;;8.96;59.10
70133;BME280;57495;49.922;7.966;2023-03-03T09:59:08;100595.28;;;9.05;57.95
70133;BME280;57495;49.922;7.966;2023-03-03T10:01:39;100594.28;;;8.95;57.85
70133;BME280;57495;49.922;7.966;2023-03-03T10:03:57;100594.47;;;9.39;57.61
70133;BME280;57495;49.922;7.966;2023-03-03T10:06:03;100585.84;;;9.24;57.64
70133;BME280;57495;49.922;7.966;2023-03-03T10:08:31;100585.97;;;9.22;57.66
70133;BME280;57495;49.922;7.966;2023-03-03T10:10:56;100590.09;;;9.49;57.02
70133;BME280;57495;49.922;7.966;2023-03-03T10:13:10;100597.75;;;9.31;57.63
70133;BME280;57495;49.922;7.966;2023-03-03T10:15:24;100596.53;;;9.24;56.80
70133;BME280;57495;49.922;7.966;2023-03-03T10:17:39;100601.16;;;9.56;55.77
70133;BME280;57495;49.922;7.966;2023-03-03T10:19:50;100603.69;;;9.80;55.71
70133;BME280;57495;49.922;7.966;2023-03-03T10:21:58;100601.72;;;9.93;54.84
70133;BME280;57495;49.922;7.966;2023-03-03T10:24:13;100598.56;;;9.77;56.06
70133;BME280;57495;49.922;7.966;2023-03-03T10:26:28;100600.22;;;10.12;55.38
70133;BME280;57495;49.922;7.966;2023-03-03T10:28:54;100599.56;;;10.42;53.82
70133;BME280;57495;49.922;7.966;2023-03-03T10:31:05;100599.09;;;10.25;54.52
70133;BME280;57495;49.922;7.966;2023-03-03T10:33:16;100596.28;;;12.44;63.35
70133;BME280;57495;49.922;7.966;2023-03-03T10:35:32;100594.00;;;12.88;58.97
70133;BME280;57495;49.922;7.966;2023-03-03T10:37:44;100593.13;;;12.98;54.25
70133;BME280;57495;49.922;7.966;2023-03-03T10:40:00;100596.81;;;12.96;52.16
70133;BME280;57495;49.922;7.966;2023-03-03T10:42:13;100603.72;;;13.09;54.02
70133;BME280;57495;49.922;7.966;2023-03-03T10:44:29;100597.13;;;12.64;54.17
70133;BME280;57495;49.922;7.966;2023-03-03T10:46:47;100600.78;;;12.34;51.18
70133;BME280;57495;49.922;7.966;2023-03-03T10:49:00;100604.91;;;12.77;57.23
70133;BME280;57495;49.922;7.966;2023-03-03T10:51:15;100604.16;;;12.75;50.78
70133;BME280;57495;49.922;7.966;2023-03-03T10:53:21;100594.97;;;12.87;51.52
70133;BME280;57495;49.922;7.966;2023-03-03T10:55:37;100600.78;;;12.73;53.19
70133;BME280;57495;49.922;7.966;2023-03-03T10:57:50;100600.13;;;13.28;52.45